sensor_id;sensor_type;location;lat;lon;timestamp;P1;durP1;ratioP1;P2;durP2;ratioP2
57057;SDS011;55017;52.848;6.748;2022-11-20T00:01:46;147.63;;;141.98;;
57057;SDS011;55017;52.848;6.748;2022-11-20T00:04:12;145.57;;;140.13;;
57057;SDS011;55017;52.848;6.748;2022-11-20T00:06:37;146.60;;;141.10;;
57057;SDS011;55017;52.848;6.748;2022-11-20T00:09:03;146.30;;;140.77;;
57057;SDS011;55017;52.848;6.748;2022-11-20T00:11:30;146.93;;;141.40;;
57057;SDS011;55017;52.848;6.748;2022-11-20T00:13:58;145.30;;;139.68;;
57057;SDS011;55017;52.848;6.748;2022-11-20T00:16:26;149.07;;;143.27;;
57057;SDS011;55017;52.848;6.748;2022-11-20T00:18:53;147.48;;;141.88;;
57057;SDS011;55017;52.848;6.748;2022-11-20T00:21:20;146.52;;;141.15;;
57057;SDS011;55017;52.848;6.748;2022-11-20T00:23:47;146.95;;;141.35;;
57057;SDS011;55017;52.848;6.748;2022-11-20T00:26:14;149.18;;;143.25;;
57057;SDS011;55017;52.848;6.748;2022-11-20T00:28:42;149.02;;;143.07;;
57057;SDS011;55017;52.848;6.748;2022-11-20T00:31:12;149.30;;;143.57;;
57057;SDS011;55017;52.848;6.748;2022-11-20T00:33:39;149.60;;;143.88;;
57057;SDS011;55017;52.848;6.748;2022-11-20T00:36:07;147.38;;;141.75;;
57057;SDS011;55017;52.848;6.748;2022-11-20T00:38:37;149.82;;;143.82;;
57057;SDS011;55017;52.848;6.748;2022-11-20T00:41:04;148.40;;;142.57;;
57057;SDS011;55017;52.848;6.748;2022-11-20T00:43:32;149.38;;;143.57;;
57057;SDS011;55017;52.848;6.748;2022-11-20T00:46:04;147.88;;;142.18;;
57057;SDS011;55017;52.848;6.748;2022-11-20T00:48:32;148.13;;;142.35;;
57057;SDS011;55017;52.848;6.748;2022-11-20T00:50:58;153.48;;;147.35;;
57057;SDS011;55017;52.848;6.748;2022-11-20T00:53:24;151.50;;;145.60;;
57057;SDS011;55017;52.848;6.748;2022-11-20T00:55:58;149.35;;;143.55;;
57057;SDS011;55017;52.848;6.748;2022-11-20T00:58:28;148.95;;;143.02;;
57057;SDS011;55017;52.848;6.748;2022-11-20T01:00:59;152.35;;;146.10;;
57057;SDS011;55017;52.848;6.748;2022-11-20T01:03:26;152.90;;;146.85;;
57057;SDS011;55017;52.848;6.748;2022-11-20T01:05:52;146.43;;;140.70;;
57057;SDS011;55017;52.848;6.748;2022-11-20T01:08:17;151.63;;;145.52;;
57057;SDS011;55017;52.848;6.748;2022-11-20T01:10:43;148.93;;;143.18;;
57057;SDS011;55017;52.848;6.748;2022-11-20T01:13:08;150.93;;;145.18;;
57057;SDS011;55017;52.848;6.748;2022-11-20T01:15:52;149.52;;;143.80;;
57057;SDS011;55017;52.848;6.748;2022-11-20T01:18:18;148.07;;;142.50;;
57057;SDS011;55017;52.848;6.748;2022-11-20T01:20:44;147.30;;;141.70;;
57057;SDS011;55017;52.848;6.748;2022-11-20T01:23:09;148.60;;;142.77;;
57057;SDS011;55017;52.848;6.748;2022-11-20T01:25:35;151.30;;;145.60;;
57057;SDS011;55017;52.848;6.748;2022-11-20T01:28:00;149.27;;;143.55;;
57057;SDS011;55017;52.848;6.748;2022-11-20T01:30:26;149.50;;;143.65;;
57057;SDS011;55017;52.848;6.748;2022-11-20T01:32:51;149.32;;;143.57;;
57057;SDS011;55017;52.848;6.748;2022-11-20T01:35:19;147.98;;;142.27;;
57057;SDS011;55017;52.848;6.748;2022-11-20T01:37:45;147.32;;;141.75;;
57057;SDS011;55017;52.848;6.748;2022-11-20T01:40:11;147.90;;;142.18;;
57057;SDS011;55017;52.848;6.748;2022-11-20T01:42:36;150.73;;;144.57;;
57057;SDS011;55017;52.848;6.748;2022-11-20T01:48:27;148.98;;;142.98;;
57057;SDS011;55017;52.848;6.748;2022-11-20T01:50:57;147.52;;;141.73;;
57057;SDS011;55017;52.848;6.748;2022-11-20T01:53:25;147.65;;;141.90;;
57057;SDS011;55017;52.848;6.748;2022-11-20T01:55:56;148.35;;;142.50;;
57057;SDS011;55017;52.848;6.748;2022-11-20T01:58:29;147.27;;;141.38;;
57057;SDS011;55017;52.848;6.748;2022-11-20T02:00:58;149.52;;;143.75;;
57057;SDS011;55017;52.848;6.748;2022-11-20T02:03:25;152.43;;;146.68;;
57057;SDS011;55017;52.848;6.748;2022-11-20T02:08:41;151.70;;;145.80;;
57057;SDS011;55017;52.848;6.748;2022-11-20T02:11:07;152.63;;;146.63;;
57057;SDS011;55017;52.848;6.748;2022-11-20T02:13:33;150.25;;;144.25;;
57057;SDS011;55017;52.848;6.748;2022-11-20T02:18:46;148.23;;;142.47;;
57057;SDS011;55017;52.848;6.748;2022-11-20T02:21:27;149.32;;;143.57;;
57057;SDS011;55017;52.848;6.748;2022-11-20T02:24:14;151.48;;;145.55;;
57057;SDS011;55017;52.848;6.748;2022-11-20T02:26:57;152.87;;;146.73;;
57057;SDS011;55017;52.848;6.748;2022-11-20T02:29:28;148.98;;;142.90;;
57057;SDS011;55017;52.848;6.748;2022-11-20T02:31:58;149.20;;;143.23;;
57057;SDS011;55017;52.848;6.748;2022-11-20T02:34:25;148.00;;;142.27;;
57057;SDS011;55017;52.848;6.748;2022-11-20T02:36:51;151.73;;;145.63;;
57057;SDS011;55017;52.848;6.748;2022-11-20T02:39:17;153.57;;;147.48;;
57057;SDS011;55017;52.848;6.748;2022-11-20T02:41:45;153.57;;;147.67;;
57057;SDS011;55017;52.848;6.748;2022-11-20T02:44:11;151.68;;;145.77;;
57057;SDS011;55017;52.848;6.748;2022-11-20T02:46:37;149.00;;;143.20;;
57057;SDS011;55017;52.848;6.748;2022-11-20T02:49:03;149.95;;;143.98;;
57057;SDS011;55017;52.848;6.748;2022-11-20T02:51:30;146.98;;;141.18;;
57057;SDS011;55017;52.848;6.748;2022-11-20T02:53:56;152.10;;;146.15;;
57057;SDS011;55017;52.848;6.748;2022-11-20T02:56:22;150.45;;;144.43;;
57057;SDS011;55017;52.848;6.748;2022-11-20T02:58:47;146.15;;;140.43;;
57057;SDS011;55017;52.848;6.748;2022-11-20T03:01:13;152.15;;;145.93;;
57057;SDS011;55017;52.848;6.748;2022-11-20T03:03:39;145.95;;;140.15;;
57057;SDS011;55017;52.848;6.748;2022-11-20T03:06:04;155.05;;;149.02;;
57057;SDS011;55017;52.848;6.748;2022-11-20T03:08:30;153.05;;;147.25;;
57057;SDS011;55017;52.848;6.748;2022-11-20T03:10:56;149.65;;;143.65;;
57057;SDS011;55017;52.848;6.748;2022-11-20T03:13:26;152.63;;;146.57;;
57057;SDS011;55017;52.848;6.748;2022-11-20T03:15:52;153.05;;;147.05;;
57057;SDS011;55017;52.848;6.748;2022-11-20T03:18:17;147.60;;;141.90;;
57057;SDS011;55017;52.848;6.748;2022-11-20T03:20:43;149.73;;;143.88;;
57057;SDS011;55017;52.848;6.748;2022-11-20T03:23:08;149.95;;;144.15;;
57057;SDS011;55017;52.848;6.748;2022-11-20T03:25:34;148.70;;;142.93;;
57057;SDS011;55017;52.848;6.748;2022-11-20T03:28:00;151.32;;;145.38;;
57057;SDS011;55017;52.848;6.748;2022-11-20T03:30:26;152.65;;;146.63;;
57057;SDS011;55017;52.848;6.748;2022-11-20T03:32:52;151.93;;;145.98;;
57057;SDS011;55017;52.848;6.748;2022-11-20T03:35:18;150.55;;;144.73;;
57057;SDS011;55017;52.848;6.748;2022-11-20T03:37:44;150.20;;;144.23;;
57057;SDS011;55017;52.848;6.748;2022-11-20T03:40:10;152.25;;;146.18;;
57057;SDS011;55017;52.848;6.748;2022-11-20T03:42:36;147.82;;;141.95;;
57057;SDS011;55017;52.848;6.748;2022-11-20T03:45:12;154.65;;;148.40;;
57057;SDS011;55017;52.848;6.748;2022-11-20T03:47:41;154.75;;;148.65;;
57057;SDS011;55017;52.848;6.748;2022-11-20T03:50:07;151.18;;;145.23;;
57057;SDS011;55017;52.848;6.748;2022-11-20T03:52:34;147.63;;;141.82;;
57057;SDS011;55017;52.848;6.748;2022-11-20T03:55:00;152.70;;;146.65;;
57057;SDS011;55017;52.848;6.748;2022-11-20T03:57:25;151.50;;;145.40;;
57057;SDS011;55017;52.848;6.748;2022-11-20T03:59:51;153.52;;;147.43;;
57057;SDS011;55017;52.848;6.748;2022-11-20T04:02:16;152.35;;;146.50;;
57057;SDS011;55017;52.848;6.748;2022-11-20T04:04:43;149.50;;;143.55;;
57057;SDS011;55017;52.848;6.748;2022-11-20T04:07:09;151.65;;;145.50;;
57057;SDS011;55017;52.848;6.748;2022-11-20T04:09:35;152.02;;;146.13;;
57057;SDS011;55017;52.848;6.748;2022-11-20T04:12:00;149.82;;;144.00;;
57057;SDS011;55017;52.848;6.748;2022-11-20T04:14:26;150.40;;;144.70;;
57057;SDS011;55017;52.848;6.748;2022-11-20T04:16:51;150.88;;;144.95;;
57057;SDS011;55017;52.848;6.748;2022-11-20T04:19:17;152.20;;;146.27;;
57057;SDS011;55017;52.848;6.748;2022-11-20T04:21:43;148.10;;;142.15;;
57057;SDS011;55017;52.848;6.748;2022-11-20T04:24:09;150.43;;;144.20;;
57057;SDS011;55017;52.848;6.748;2022-11-20T04:26:35;150.45;;;144.68;;
57057;SDS011;55017;52.848;6.748;2022-11-20T04:29:02;151.05;;;145.05;;
57057;SDS011;55017;52.848;6.748;2022-11-20T04:31:28;153.77;;;147.75;;
57057;SDS011;55017;52.848;6.748;2022-11-20T04:33:58;151.77;;;145.68;;
57057;SDS011;55017;52.848;6.748;2022-11-20T04:36:25;151.15;;;145.35;;
57057;SDS011;55017;52.848;6.748;2022-11-20T04:38:53;149.05;;;143.15;;
57057;SDS011;55017;52.848;6.748;2022-11-20T04:41:24;150.93;;;145.02;;
57057;SDS011;55017;52.848;6.748;2022-11-20T04:43:52;150.98;;;144.88;;
57057;SDS011;55017;52.848;6.748;2022-11-20T04:46:24;150.32;;;144.35;;
57057;SDS011;55017;52.848;6.748;2022-11-20T04:48:51;153.45;;;147.27;;
57057;SDS011;55017;52.848;6.748;2022-11-20T04:51:17;148.65;;;142.82;;
57057;SDS011;55017;52.848;6.748;2022-11-20T04:53:43;146.23;;;140.65;;
57057;SDS011;55017;52.848;6.748;2022-11-20T04:56:10;146.70;;;140.98;;
57057;SDS011;55017;52.848;6.748;2022-11-20T04:58:37;154.10;;;148.07;;
57057;SDS011;55017;52.848;6.748;2022-11-20T05:01:04;152.40;;;146.40;;
57057;SDS011;55017;52.848;6.748;2022-11-20T05:03:35;149.05;;;143.18;;
57057;SDS011;55017;52.848;6.748;2022-11-20T05:06:02;147.23;;;141.20;;
57057;SDS011;55017;52.848;6.748;2022-11-20T05:08:28;151.55;;;145.38;;
57057;SDS011;55017;52.848;6.748;2022-11-20T05:10:59;152.27;;;146.18;;
57057;SDS011;55017;52.848;6.748;2022-11-20T05:13:29;154.23;;;148.10;;
57057;SDS011;55017;52.848;6.748;2022-11-20T05:15:55;154.90;;;148.80;;
57057;SDS011;55017;52.848;6.748;2022-11-20T05:18:20;153.32;;;147.18;;
57057;SDS011;55017;52.848;6.748;2022-11-20T05:20:46;153.40;;;147.13;;
57057;SDS011;55017;52.848;6.748;2022-11-20T05:23:11;149.77;;;143.88;;
57057;SDS011;55017;52.848;6.748;2022-11-20T05:25:37;148.85;;;142.88;;
57057;SDS011;55017;52.848;6.748;2022-11-20T05:28:02;152.38;;;146.23;;
57057;SDS011;55017;52.848;6.748;2022-11-20T05:30:28;151.95;;;146.00;;
57057;SDS011;55017;52.848;6.748;2022-11-20T05:32:54;152.18;;;146.20;;
57057;SDS011;55017;52.848;6.748;2022-11-20T05:35:19;151.75;;;145.75;;
57057;SDS011;55017;52.848;6.748;2022-11-20T05:37:45;155.25;;;148.98;;
57057;SDS011;55017;52.848;6.748;2022-11-20T05:40:10;151.25;;;145.07;;
57057;SDS011;55017;52.848;6.748;2022-11-20T05:42:36;150.90;;;144.70;;
57057;SDS011;55017;52.848;6.748;2022-11-20T05:45:03;154.95;;;148.95;;
57057;SDS011;55017;52.848;6.748;2022-11-20T05:47:33;153.63;;;147.52;;
57057;SDS011;55017;52.848;6.748;2022-11-20T05:50:00;149.85;;;143.85;;
57057;SDS011;55017;52.848;6.748;2022-11-20T05:52:29;150.15;;;144.10;;
57057;SDS011;55017;52.848;6.748;2022-11-20T05:54:55;149.73;;;143.50;;
57057;SDS011;55017;52.848;6.748;2022-11-20T05:57:21;149.38;;;143.45;;
57057;SDS011;55017;52.848;6.748;2022-11-20T05:59:46;147.45;;;141.60;;
57057;SDS011;55017;52.848;6.748;2022-11-20T06:02:12;149.95;;;144.13;;
57057;SDS011;55017;52.848;6.748;2022-11-20T06:04:38;152.90;;;146.85;;
57057;SDS011;55017;52.848;6.748;2022-11-20T06:07:04;144.73;;;138.90;;
57057;SDS011;55017;52.848;6.748;2022-11-20T06:09:30;153.40;;;147.32;;
57057;SDS011;55017;52.848;6.748;2022-11-20T06:11:56;153.32;;;147.30;;
57057;SDS011;55017;52.848;6.748;2022-11-20T06:14:21;153.25;;;147.05;;
57057;SDS011;55017;52.848;6.748;2022-11-20T06:16:47;152.80;;;146.70;;
57057;SDS011;55017;52.848;6.748;2022-11-20T06:19:13;148.95;;;143.05;;
57057;SDS011;55017;52.848;6.748;2022-11-20T06:21:38;153.05;;;146.95;;
57057;SDS011;55017;52.848;6.748;2022-11-20T06:24:04;151.18;;;145.02;;
57057;SDS011;55017;52.848;6.748;2022-11-20T06:26:30;153.15;;;147.10;;
57057;SDS011;55017;52.848;6.748;2022-11-20T06:28:55;152.10;;;145.80;;
57057;SDS011;55017;52.848;6.748;2022-11-20T06:31:22;154.05;;;147.88;;
57057;SDS011;55017;52.848;6.748;2022-11-20T06:33:50;152.95;;;146.82;;
57057;SDS011;55017;52.848;6.748;2022-11-20T06:36:18;151.68;;;145.57;;
57057;SDS011;55017;52.848;6.748;2022-11-20T06:38:45;153.00;;;146.63;;
57057;SDS011;55017;52.848;6.748;2022-11-20T06:41:14;150.15;;;144.25;;
57057;SDS011;55017;52.848;6.748;2022-11-20T06:43:42;152.98;;;146.98;;
57057;SDS011;55017;52.848;6.748;2022-11-20T06:46:08;150.75;;;144.70;;
57057;SDS011;55017;52.848;6.748;2022-11-20T06:48:35;152.65;;;146.63;;
57057;SDS011;55017;52.848;6.748;2022-11-20T06:51:02;146.43;;;140.48;;
57057;SDS011;55017;52.848;6.748;2022-11-20T06:53:29;150.73;;;144.55;;
57057;SDS011;55017;52.848;6.748;2022-11-20T06:55:55;151.63;;;145.80;;
57057;SDS011;55017;52.848;6.748;2022-11-20T06:58:22;148.77;;;142.80;;
57057;SDS011;55017;52.848;6.748;2022-11-20T07:00:51;151.80;;;145.57;;
57057;SDS011;55017;52.848;6.748;2022-11-20T07:03:16;152.73;;;146.55;;
57057;SDS011;55017;52.848;6.748;2022-11-20T07:05:42;150.43;;;144.60;;
57057;SDS011;55017;52.848;6.748;2022-11-20T07:08:08;149.35;;;143.45;;
57057;SDS011;55017;52.848;6.748;2022-11-20T07:10:34;152.55;;;146.65;;
57057;SDS011;55017;52.848;6.748;2022-11-20T07:13:00;150.05;;;144.05;;
57057;SDS011;55017;52.848;6.748;2022-11-20T07:15:26;151.43;;;145.57;;
57057;SDS011;55017;52.848;6.748;2022-11-20T07:17:52;149.23;;;143.48;;
57057;SDS011;55017;52.848;6.748;2022-11-20T07:20:17;147.52;;;141.82;;
57057;SDS011;55017;52.848;6.748;2022-11-20T07:22:43;153.05;;;147.18;;
57057;SDS011;55017;52.848;6.748;2022-11-20T07:25:09;148.65;;;142.90;;
57057;SDS011;55017;52.848;6.748;2022-11-20T07:27:35;149.35;;;143.57;;
57057;SDS011;55017;52.848;6.748;2022-11-20T07:30:01;151.40;;;145.38;;
57057;SDS011;55017;52.848;6.748;2022-11-20T07:32:28;150.25;;;144.32;;
57057;SDS011;55017;52.848;6.748;2022-11-20T07:34:53;152.82;;;146.73;;
57057;SDS011;55017;52.848;6.748;2022-11-20T07:37:19;150.90;;;145.10;;
57057;SDS011;55017;52.848;6.748;2022-11-20T07:39:44;150.50;;;144.73;;
57057;SDS011;55017;52.848;6.748;2022-11-20T07:42:10;150.65;;;144.73;;
57057;SDS011;55017;52.848;6.748;2022-11-20T07:44:37;151.50;;;145.73;;
57057;SDS011;55017;52.848;6.748;2022-11-20T07:47:03;150.98;;;144.98;;
57057;SDS011;55017;52.848;6.748;2022-11-20T07:49:29;148.18;;;142.55;;
57057;SDS011;55017;52.848;6.748;2022-11-20T07:51:55;142.65;;;137.15;;
57057;SDS011;55017;52.848;6.748;2022-11-20T07:54:22;149.63;;;143.82;;
57057;SDS011;55017;52.848;6.748;2022-11-20T07:56:48;147.55;;;141.75;;
57057;SDS011;55017;52.848;6.748;2022-11-20T07:59:14;152.30;;;146.15;;
57057;SDS011;55017;52.848;6.748;2022-11-20T08:01:40;152.10;;;146.10;;
57057;SDS011;55017;52.848;6.748;2022-11-20T08:04:07;148.90;;;142.88;;
57057;SDS011;55017;52.848;6.748;2022-11-20T08:06:33;149.50;;;143.60;;
57057;SDS011;55017;52.848;6.748;2022-11-20T08:08:59;146.90;;;141.10;;
57057;SDS011;55017;52.848;6.748;2022-11-20T08:11:24;150.38;;;144.35;;
57057;SDS011;55017;52.848;6.748;2022-11-20T08:14:08;152.43;;;146.63;;
57057;SDS011;55017;52.848;6.748;2022-11-20T08:16:37;145.95;;;140.13;;
57057;SDS011;55017;52.848;6.748;2022-11-20T08:19:14;143.60;;;137.98;;
57057;SDS011;55017;52.848;6.748;2022-11-20T08:21:40;148.90;;;143.05;;
57057;SDS011;55017;52.848;6.748;2022-11-20T08:24:06;149.75;;;143.82;;
57057;SDS011;55017;52.848;6.748;2022-11-20T08:26:38;146.73;;;141.23;;
57057;SDS011;55017;52.848;6.748;2022-11-20T08:29:04;150.30;;;144.55;;
57057;SDS011;55017;52.848;6.748;2022-11-20T08:31:31;146.30;;;140.63;;
57057;SDS011;55017;52.848;6.748;2022-11-20T08:33:57;143.73;;;138.23;;
57057;SDS011;55017;52.848;6.748;2022-11-20T08:36:23;147.32;;;141.38;;
57057;SDS011;55017;52.848;6.748;2022-11-20T08:38:50;147.15;;;141.35;;
57057;SDS011;55017;52.848;6.748;2022-11-20T08:41:17;147.95;;;142.20;;
57057;SDS011;55017;52.848;6.748;2022-11-20T08:43:49;145.35;;;139.63;;
57057;SDS011;55017;52.848;6.748;2022-11-20T08:46:16;147.98;;;142.52;;
57057;SDS011;55017;52.848;6.748;2022-11-20T08:48:42;147.35;;;141.63;;
57057;SDS011;55017;52.848;6.748;2022-11-20T08:51:09;146.85;;;141.23;;
57057;SDS011;55017;52.848;6.748;2022-11-20T08:53:35;147.13;;;141.43;;
57057;SDS011;55017;52.848;6.748;2022-11-20T08:56:01;143.77;;;138.27;;
57057;SDS011;55017;52.848;6.748;2022-11-20T08:58:27;145.43;;;139.73;;
57057;SDS011;55017;52.848;6.748;2022-11-20T09:00:52;146.32;;;140.63;;
57057;SDS011;55017;52.848;6.748;2022-11-20T09:03:18;147.35;;;141.75;;
57057;SDS011;55017;52.848;6.748;2022-11-20T09:05:44;149.32;;;143.73;;
57057;SDS011;55017;52.848;6.748;2022-11-20T09:08:10;147.80;;;142.25;;
57057;SDS011;55017;52.848;6.748;2022-11-20T09:10:35;142.73;;;137.07;;
57057;SDS011;55017;52.848;6.748;2022-11-20T09:13:01;149.25;;;143.48;;
57057;SDS011;55017;52.848;6.748;2022-11-20T09:15:27;145.57;;;139.98;;
57057;SDS011;55017;52.848;6.748;2022-11-20T09:17:56;150.27;;;144.38;;
57057;SDS011;55017;52.848;6.748;2022-11-20T09:20:23;149.38;;;143.57;;
57057;SDS011;55017;52.848;6.748;2022-11-20T09:22:50;148.30;;;142.70;;
57057;SDS011;55017;52.848;6.748;2022-11-20T09:25:16;149.52;;;143.63;;
57057;SDS011;55017;52.848;6.748;2022-11-20T09:27:42;148.90;;;143.20;;
57057;SDS011;55017;52.848;6.748;2022-11-20T09:30:10;145.15;;;139.52;;
57057;SDS011;55017;52.848;6.748;2022-11-20T09:32:38;145.30;;;139.90;;
57057;SDS011;55017;52.848;6.748;2022-11-20T09:35:04;143.27;;;137.77;;
57057;SDS011;55017;52.848;6.748;2022-11-20T09:37:29;147.68;;;142.18;;
57057;SDS011;55017;52.848;6.748;2022-11-20T09:39:55;144.98;;;139.48;;
57057;SDS011;55017;52.848;6.748;2022-11-20T09:45:02;146.55;;;140.95;;
57057;SDS011;55017;52.848;6.748;2022-11-20T09:47:52;144.35;;;139.05;;
57057;SDS011;55017;52.848;6.748;2022-11-20T09:50:43;145.70;;;140.13;;
57057;SDS011;55017;52.848;6.748;2022-11-20T09:53:27;146.02;;;140.50;;
57057;SDS011;55017;52.848;6.748;2022-11-20T09:56:19;141.88;;;136.65;;
57057;SDS011;55017;52.848;6.748;2022-11-20T09:58:47;140.25;;;134.35;;
57057;SDS011;55017;52.848;6.748;2022-11-20T10:01:18;142.02;;;136.73;;
57057;SDS011;55017;52.848;6.748;2022-11-20T10:06:30;146.07;;;140.70;;
57057;SDS011;55017;52.848;6.748;2022-11-20T10:09:00;145.48;;;140.07;;
57057;SDS011;55017;52.848;6.748;2022-11-20T10:11:45;142.77;;;137.32;;
57057;SDS011;55017;52.848;6.748;2022-11-20T10:14:29;137.98;;;132.88;;
57057;SDS011;55017;52.848;6.748;2022-11-20T10:19:51;142.50;;;137.20;;
57057;SDS011;55017;52.848;6.748;2022-11-20T10:25:33;142.70;;;137.48;;
57057;SDS011;55017;52.848;6.748;2022-11-20T10:31:56;142.70;;;137.35;;
57057;SDS011;55017;52.848;6.748;2022-11-20T10:34:05;144.27;;;138.88;;
57057;SDS011;55017;52.848;6.748;2022-11-20T10:36:52;140.40;;;135.05;;
57057;SDS011;55017;52.848;6.748;2022-11-20T10:39:33;141.43;;;135.90;;
57057;SDS011;55017;52.848;6.748;2022-11-20T10:42:04;142.43;;;137.02;;
57057;SDS011;55017;52.848;6.748;2022-11-20T10:44:36;140.93;;;135.57;;
57057;SDS011;55017;52.848;6.748;2022-11-20T10:47:24;138.88;;;133.90;;
57057;SDS011;55017;52.848;6.748;2022-11-20T10:49:53;138.38;;;133.35;;
57057;SDS011;55017;52.848;6.748;2022-11-20T10:52:40;138.97;;;133.93;;
57057;SDS011;55017;52.848;6.748;2022-11-20T10:58:12;140.60;;;135.55;;
57057;SDS011;55017;52.848;6.748;2022-11-20T11:00:39;138.38;;;133.45;;
57057;SDS011;55017;52.848;6.748;2022-11-20T11:06:03;143.38;;;138.20;;
57057;SDS011;55017;52.848;6.748;2022-11-20T11:08:42;143.45;;;138.23;;
57057;SDS011;55017;52.848;6.748;2022-11-20T11:11:18;143.27;;;137.98;;
57057;SDS011;55017;52.848;6.748;2022-11-20T11:13:52;140.02;;;135.02;;
57057;SDS011;55017;52.848;6.748;2022-11-20T11:16:25;138.35;;;133.25;;
57057;SDS011;55017;52.848;6.748;2022-11-20T11:19:02;143.23;;;138.02;;
57057;SDS011;55017;52.848;6.748;2022-11-20T11:21:32;141.32;;;136.38;;
57057;SDS011;55017;52.848;6.748;2022-11-20T11:23:59;142.88;;;137.63;;
57057;SDS011;55017;52.848;6.748;2022-11-20T11:26:26;142.30;;;137.25;;
57057;SDS011;55017;52.848;6.748;2022-11-20T11:28:53;141.30;;;136.20;;
57057;SDS011;55017;52.848;6.748;2022-11-20T11:31:23;142.75;;;137.55;;
57057;SDS011;55017;52.848;6.748;2022-11-20T11:34:03;144.82;;;139.68;;
57057;SDS011;55017;52.848;6.748;2022-11-20T11:36:30;147.35;;;141.88;;
57057;SDS011;55017;52.848;6.748;2022-11-20T11:41:28;143.13;;;137.65;;
57057;SDS011;55017;52.848;6.748;2022-11-20T11:43:58;141.90;;;136.70;;
57057;SDS011;55017;52.848;6.748;2022-11-20T11:46:52;145.48;;;139.95;;
57057;SDS011;55017;52.848;6.748;2022-11-20T11:49:19;147.32;;;141.63;;
57057;SDS011;55017;52.848;6.748;2022-11-20T11:54:31;142.75;;;137.63;;
57057;SDS011;55017;52.848;6.748;2022-11-20T11:57:22;143.23;;;137.77;;
57057;SDS011;55017;52.848;6.748;2022-11-20T12:02:36;145.32;;;139.70;;
57057;SDS011;55017;52.848;6.748;2022-11-20T12:16:04;138.18;;;133.20;;
57057;SDS011;55017;52.848;6.748;2022-11-20T12:18:35;140.55;;;135.50;;
57057;SDS011;55017;52.848;6.748;2022-11-20T12:29:02;134.98;;;130.18;;
57057;SDS011;55017;52.848;6.748;2022-11-20T12:34:24;132.55;;;127.75;;
57057;SDS011;55017;52.848;6.748;2022-11-20T12:39:56;142.50;;;135.48;;
57057;SDS011;55017;52.848;6.748;2022-11-20T12:42:43;133.68;;;128.52;;
57057;SDS011;55017;52.848;6.748;2022-11-20T12:45:46;136.38;;;131.38;;
57057;SDS011;55017;52.848;6.748;2022-11-20T12:51:34;134.45;;;129.50;;
57057;SDS011;55017;52.848;6.748;2022-11-20T12:54:30;137.95;;;133.05;;
57057;SDS011;55017;52.848;6.748;2022-11-20T13:00:07;136.15;;;131.25;;
57057;SDS011;55017;52.848;6.748;2022-11-20T13:08:15;135.18;;;130.32;;
57057;SDS011;55017;52.848;6.748;2022-11-20T13:11:23;140.52;;;135.43;;
57057;SDS011;55017;52.848;6.748;2022-11-20T13:16:25;139.88;;;134.65;;
57057;SDS011;55017;52.848;6.748;2022-11-20T13:19:11;137.63;;;132.73;;
57057;SDS011;55017;52.848;6.748;2022-11-20T13:21:39;138.73;;;133.70;;
57057;SDS011;55017;52.848;6.748;2022-11-20T13:24:07;140.02;;;134.85;;
57057;SDS011;55017;52.848;6.748;2022-11-20T13:26:45;136.73;;;131.63;;
57057;SDS011;55017;52.848;6.748;2022-11-20T13:29:16;142.00;;;136.82;;
57057;SDS011;55017;52.848;6.748;2022-11-20T13:31:44;140.60;;;135.50;;
57057;SDS011;55017;52.848;6.748;2022-11-20T13:34:12;138.93;;;133.82;;
57057;SDS011;55017;52.848;6.748;2022-11-20T13:36:51;139.65;;;134.55;;
57057;SDS011;55017;52.848;6.748;2022-11-20T13:39:28;135.15;;;129.95;;
57057;SDS011;55017;52.848;6.748;2022-11-20T13:41:58;137.48;;;132.38;;
57057;SDS011;55017;52.848;6.748;2022-11-20T13:44:30;139.18;;;133.93;;
57057;SDS011;55017;52.848;6.748;2022-11-20T13:47:22;139.48;;;134.32;;
57057;SDS011;55017;52.848;6.748;2022-11-20T13:49:51;141.63;;;136.30;;
57057;SDS011;55017;52.848;6.748;2022-11-20T13:52:33;140.93;;;135.63;;
57057;SDS011;55017;52.848;6.748;2022-11-20T13:55:25;138.63;;;133.43;;
57057;SDS011;55017;52.848;6.748;2022-11-20T13:58:02;139.27;;;133.95;;
57057;SDS011;55017;52.848;6.748;2022-11-20T14:03:36;142.90;;;137.55;;
57057;SDS011;55017;52.848;6.748;2022-11-20T14:06:05;144.43;;;139.02;;
57057;SDS011;55017;52.848;6.748;2022-11-20T14:08:46;141.40;;;136.10;;
57057;SDS011;55017;52.848;6.748;2022-11-20T14:11:14;136.75;;;131.63;;
57057;SDS011;55017;52.848;6.748;2022-11-20T14:16:31;139.52;;;134.32;;
57057;SDS011;55017;52.848;6.748;2022-11-20T14:19:17;141.82;;;136.30;;
57057;SDS011;55017;52.848;6.748;2022-11-20T14:21:45;140.73;;;135.13;;
57057;SDS011;55017;52.848;6.748;2022-11-20T14:24:11;141.02;;;135.60;;
57057;SDS011;55017;52.848;6.748;2022-11-20T14:26:41;140.88;;;135.43;;
57057;SDS011;55017;52.848;6.748;2022-11-20T14:29:13;140.95;;;135.55;;
57057;SDS011;55017;52.848;6.748;2022-11-20T14:31:41;142.70;;;137.23;;
57057;SDS011;55017;52.848;6.748;2022-11-20T14:34:17;141.07;;;135.50;;
57057;SDS011;55017;52.848;6.748;2022-11-20T14:36:47;145.75;;;140.15;;
57057;SDS011;55017;52.848;6.748;2022-11-20T14:39:25;138.18;;;132.80;;
57057;SDS011;55017;52.848;6.748;2022-11-20T14:42:10;137.75;;;132.32;;
57057;SDS011;55017;52.848;6.748;2022-11-20T14:44:40;142.52;;;136.93;;
57057;SDS011;55017;52.848;6.748;2022-11-20T14:47:08;144.35;;;138.55;;
57057;SDS011;55017;52.848;6.748;2022-11-20T14:49:42;146.32;;;140.57;;
57057;SDS011;55017;52.848;6.748;2022-11-20T14:52:24;143.20;;;137.40;;
57057;SDS011;55017;52.848;6.748;2022-11-20T14:54:52;143.43;;;137.70;;
57057;SDS011;55017;52.848;6.748;2022-11-20T14:57:28;141.05;;;135.45;;
57057;SDS011;55017;52.848;6.748;2022-11-20T15:02:43;143.43;;;137.75;;
57057;SDS011;55017;52.848;6.748;2022-11-20T15:05:10;145.35;;;139.73;;
57057;SDS011;55017;52.848;6.748;2022-11-20T15:07:37;146.75;;;140.85;;
57057;SDS011;55017;52.848;6.748;2022-11-20T15:10:06;145.88;;;139.68;;
57057;SDS011;55017;52.848;6.748;2022-11-20T15:12:34;140.63;;;135.05;;
57057;SDS011;55017;52.848;6.748;2022-11-20T15:15:02;147.30;;;141.23;;
57057;SDS011;55017;52.848;6.748;2022-11-20T15:17:30;143.00;;;137.18;;
57057;SDS011;55017;52.848;6.748;2022-11-20T15:19:56;142.13;;;136.45;;
57057;SDS011;55017;52.848;6.748;2022-11-20T15:22:22;145.32;;;139.50;;
57057;SDS011;55017;52.848;6.748;2022-11-20T15:24:47;146.50;;;140.65;;
57057;SDS011;55017;52.848;6.748;2022-11-20T15:27:13;144.00;;;138.15;;
57057;SDS011;55017;52.848;6.748;2022-11-20T15:29:39;144.25;;;138.55;;
57057;SDS011;55017;52.848;6.748;2022-11-20T15:32:05;146.38;;;140.45;;
57057;SDS011;55017;52.848;6.748;2022-11-20T15:34:30;148.70;;;142.77;;